sensor_id;sensor_type;location;lat;lon;timestamp;P1;durP1;ratioP1;P2;durP2;ratioP2
69951;SDS011;60406;48.408;13.392;2024-02-16T00:02:47;20.63;;;14.85;;
69951;SDS011;60406;48.408;13.392;2024-02-16T00:07:48;19.83;;;13.05;;
69951;SDS011;60406;48.408;13.392;2024-02-16T00:12:49;18.65;;;13.80;;
69951;SDS011;60406;48.408;13.392;2024-02-16T00:17:50;23.13;;;13.73;;
69951;SDS011;60406;48.408;13.392;2024-02-16T00:22:50;24.30;;;13.23;;
69951;SDS011;60406;48.408;13.392;2024-02-16T00:27:51;21.88;;;16.10;;
69951;SDS011;60406;48.408;13.392;2024-02-16T00:32:52;27.17;;;17.30;;
69951;SDS011;60406;48.408;13.392;2024-02-16T00:37:53;23.40;;;16.92;;
69951;SDS011;60406;48.408;13.392;2024-02-16T00:42:54;28.02;;;15.95;;
69951;SDS011;60406;48.408;13.392;2024-02-16T00:47:55;23.70;;;16.65;;
69951;SDS011;60406;48.408;13.392;2024-02-16T00:52:56;20.33;;;14.55;;
69951;SDS011;60406;48.408;13.392;2024-02-16T00:57:57;21.60;;;14.68;;
69951;SDS011;60406;48.408;13.392;2024-02-16T01:02:58;22.05;;;15.45;;
69951;SDS011;60406;48.408;13.392;2024-02-16T01:07:59;21.95;;;15.05;;
69951;SDS011;60406;48.408;13.392;2024-02-16T01:13:00;24.00;;;16.15;;
69951;SDS011;60406;48.408;13.392;2024-02-16T01:18:00;23.60;;;17.10;;
69951;SDS011;60406;48.408;13.392;2024-02-16T01:23:01;28.17;;;16.30;;
69951;SDS011;60406;48.408;13.392;2024-02-16T01:28:02;23.83;;;17.13;;
69951;SDS011;60406;48.408;13.392;2024-02-16T01:33:03;21.23;;;15.40;;
69951;SDS011;60406;48.408;13.392;2024-02-16T01:38:04;24.55;;;15.68;;
69951;SDS011;60406;48.408;13.392;2024-02-16T01:43:05;20.80;;;15.13;;
69951;SDS011;60406;48.408;13.392;2024-02-16T01:48:06;22.33;;;16.05;;
69951;SDS011;60406;48.408;13.392;2024-02-16T01:53:07;24.20;;;16.05;;
69951;SDS011;60406;48.408;13.392;2024-02-16T01:58:09;25.67;;;17.48;;
69951;SDS011;60406;48.408;13.392;2024-02-16T02:03:10;25.83;;;16.77;;
69951;SDS011;60406;48.408;13.392;2024-02-16T02:08:11;25.75;;;17.08;;
69951;SDS011;60406;48.408;13.392;2024-02-16T02:13:12;22.17;;;16.55;;
69951;SDS011;60406;48.408;13.392;2024-02-16T02:18:13;27.70;;;17.63;;
69951;SDS011;60406;48.408;13.392;2024-02-16T02:23:14;27.00;;;16.27;;
69951;SDS011;60406;48.408;13.392;2024-02-16T02:28:15;23.48;;;16.33;;
69951;SDS011;60406;48.408;13.392;2024-02-16T02:33:16;24.10;;;17.17;;
69951;SDS011;60406;48.408;13.392;2024-02-16T02:38:17;29.50;;;17.85;;
69951;SDS011;60406;48.408;13.392;2024-02-16T02:43:18;26.30;;;17.10;;
69951;SDS011;60406;48.408;13.392;2024-02-16T02:48:18;27.73;;;17.60;;
69951;SDS011;60406;48.408;13.392;2024-02-16T02:53:19;27.30;;;18.35;;
69951;SDS011;60406;48.408;13.392;2024-02-16T02:58:20;26.50;;;16.98;;
69951;SDS011;60406;48.408;13.392;2024-02-16T03:03:22;24.23;;;16.88;;
69951;SDS011;60406;48.408;13.392;2024-02-16T03:08:22;24.95;;;18.20;;
69951;SDS011;60406;48.408;13.392;2024-02-16T03:13:23;26.65;;;18.75;;
69951;SDS011;60406;48.408;13.392;2024-02-16T03:18:24;28.30;;;18.52;;
69951;SDS011;60406;48.408;13.392;2024-02-16T03:23:27;24.92;;;17.77;;
69951;SDS011;60406;48.408;13.392;2024-02-16T03:28:28;27.38;;;19.17;;
69951;SDS011;60406;48.408;13.392;2024-02-16T03:33:29;27.42;;;18.92;;
69951;SDS011;60406;48.408;13.392;2024-02-16T03:38:30;30.35;;;20.42;;
69951;SDS011;60406;48.408;13.392;2024-02-16T03:43:31;32.97;;;21.77;;
69951;SDS011;60406;48.408;13.392;2024-02-16T03:48:32;32.80;;;21.33;;
69951;SDS011;60406;48.408;13.392;2024-02-16T03:53:33;41.80;;;23.80;;
69951;SDS011;60406;48.408;13.392;2024-02-16T03:58:33;34.60;;;22.13;;
69951;SDS011;60406;48.408;13.392;2024-02-16T04:03:34;35.45;;;23.70;;
69951;SDS011;60406;48.408;13.392;2024-02-16T04:08:35;41.08;;;25.15;;
69951;SDS011;60406;48.408;13.392;2024-02-16T04:13:36;42.22;;;24.90;;
69951;SDS011;60406;48.408;13.392;2024-02-16T04:18:37;39.08;;;24.23;;
69951;SDS011;60406;48.408;13.392;2024-02-16T04:23:38;38.40;;;25.30;;
69951;SDS011;60406;48.408;13.392;2024-02-16T04:28:39;40.80;;;25.67;;
69951;SDS011;60406;48.408;13.392;2024-02-16T04:33:39;41.10;;;26.25;;
69951;SDS011;60406;48.408;13.392;2024-02-16T04:38:40;46.03;;;27.73;;
69951;SDS011;60406;48.408;13.392;2024-02-16T04:43:41;44.95;;;27.85;;
69951;SDS011;60406;48.408;13.392;2024-02-16T04:48:42;40.63;;;24.45;;
69951;SDS011;60406;48.408;13.392;2024-02-16T04:53:43;46.13;;;28.10;;
69951;SDS011;60406;48.408;13.392;2024-02-16T04:58:44;46.53;;;25.77;;
69951;SDS011;60406;48.408;13.392;2024-02-16T05:03:45;41.47;;;26.25;;
69951;SDS011;60406;48.408;13.392;2024-02-16T05:08:46;48.47;;;27.13;;
69951;SDS011;60406;48.408;13.392;2024-02-16T05:13:47;43.63;;;26.85;;
69951;SDS011;60406;48.408;13.392;2024-02-16T05:18:47;42.92;;;26.70;;
69951;SDS011;60406;48.408;13.392;2024-02-16T05:23:48;44.70;;;26.70;;
69951;SDS011;60406;48.408;13.392;2024-02-16T05:28:49;47.03;;;27.65;;
69951;SDS011;60406;48.408;13.392;2024-02-16T05:33:50;46.42;;;28.75;;
69951;SDS011;60406;48.408;13.392;2024-02-16T05:38:51;48.15;;;27.88;;
69951;SDS011;60406;48.408;13.392;2024-02-16T05:43:52;42.67;;;28.63;;
69951;SDS011;60406;48.408;13.392;2024-02-16T05:48:53;44.22;;;28.42;;
69951;SDS011;60406;48.408;13.392;2024-02-16T05:53:54;49.45;;;29.83;;
69951;SDS011;60406;48.408;13.392;2024-02-16T05:58:55;47.80;;;28.90;;
69951;SDS011;60406;48.408;13.392;2024-02-16T06:03:56;46.30;;;28.15;;
69951;SDS011;60406;48.408;13.392;2024-02-16T06:08:56;54.55;;;30.15;;
69951;SDS011;60406;48.408;13.392;2024-02-16T06:13:58;54.30;;;32.38;;
69951;SDS011;60406;48.408;13.392;2024-02-16T06:18:59;52.05;;;32.13;;
69951;SDS011;60406;48.408;13.392;2024-02-16T06:23:59;53.63;;;32.50;;
69951;SDS011;60406;48.408;13.392;2024-02-16T06:29:00;58.92;;;32.72;;
69951;SDS011;60406;48.408;13.392;2024-02-16T06:34:01;53.65;;;30.77;;
69951;SDS011;60406;48.408;13.392;2024-02-16T06:39:02;54.55;;;32.00;;
69951;SDS011;60406;48.408;13.392;2024-02-16T06:44:06;64.50;;;31.42;;
69951;SDS011;60406;48.408;13.392;2024-02-16T06:49:07;56.45;;;32.65;;
69951;SDS011;60406;48.408;13.392;2024-02-16T06:54:07;53.22;;;33.83;;
69951;SDS011;60406;48.408;13.392;2024-02-16T06:59:08;62.50;;;34.75;;
69951;SDS011;60406;48.408;13.392;2024-02-16T07:04:09;58.47;;;34.13;;
69951;SDS011;60406;48.408;13.392;2024-02-16T07:09:10;63.60;;;34.60;;
69951;SDS011;60406;48.408;13.392;2024-02-16T07:14:11;58.05;;;34.88;;
69951;SDS011;60406;48.408;13.392;2024-02-16T07:19:12;58.35;;;36.03;;
69951;SDS011;60406;48.408;13.392;2024-02-16T07:24:13;59.08;;;34.63;;
69951;SDS011;60406;48.408;13.392;2024-02-16T07:29:14;60.63;;;35.67;;
69951;SDS011;60406;48.408;13.392;2024-02-16T07:34:15;58.72;;;34.80;;
69951;SDS011;60406;48.408;13.392;2024-02-16T07:39:16;58.30;;;34.53;;
69951;SDS011;60406;48.408;13.392;2024-02-16T07:44:17;60.45;;;34.05;;
69951;SDS011;60406;48.408;13.392;2024-02-16T07:49:18;66.30;;;36.72;;
69951;SDS011;60406;48.408;13.392;2024-02-16T07:54:19;58.40;;;34.67;;
69951;SDS011;60406;48.408;13.392;2024-02-16T07:59:19;54.50;;;33.25;;
69951;SDS011;60406;48.408;13.392;2024-02-16T08:04:20;58.15;;;32.50;;
69951;SDS011;60406;48.408;13.392;2024-02-16T08:09:22;52.40;;;31.48;;
69951;SDS011;60406;48.408;13.392;2024-02-16T08:14:23;49.95;;;30.75;;
69951;SDS011;60406;48.408;13.392;2024-02-16T08:19:26;48.45;;;31.83;;
69951;SDS011;60406;48.408;13.392;2024-02-16T08:24:32;50.25;;;29.85;;
69951;SDS011;60406;48.408;13.392;2024-02-16T08:29:34;49.80;;;29.95;;
69951;SDS011;60406;48.408;13.392;2024-02-16T08:34:35;46.42;;;28.23;;
69951;SDS011;60406;48.408;13.392;2024-02-16T08:39:37;49.92;;;29.02;;
69951;SDS011;60406;48.408;13.392;2024-02-16T08:44:38;43.92;;;26.92;;
69951;SDS011;60406;48.408;13.392;2024-02-16T08:49:39;43.72;;;27.23;;
69951;SDS011;60406;48.408;13.392;2024-02-16T08:54:40;45.00;;;28.75;;
69951;SDS011;60406;48.408;13.392;2024-02-16T08:59:40;41.25;;;27.00;;
69951;SDS011;60406;48.408;13.392;2024-02-16T09:04:42;42.85;;;27.30;;
69951;SDS011;60406;48.408;13.392;2024-02-16T09:09:43;37.20;;;25.38;;
69951;SDS011;60406;48.408;13.392;2024-02-16T09:14:44;37.13;;;25.73;;
69951;SDS011;60406;48.408;13.392;2024-02-16T09:19:45;39.88;;;25.45;;
69951;SDS011;60406;48.408;13.392;2024-02-16T09:24:46;40.28;;;27.20;;
69951;SDS011;60406;48.408;13.392;2024-02-16T09:29:47;37.95;;;25.25;;
69951;SDS011;60406;48.408;13.392;2024-02-16T09:34:48;40.42;;;25.88;;
69951;SDS011;60406;48.408;13.392;2024-02-16T09:39:49;39.67;;;25.52;;
69951;SDS011;60406;48.408;13.392;2024-02-16T09:44:50;41.40;;;25.90;;
69951;SDS011;60406;48.408;13.392;2024-02-16T09:49:51;35.53;;;23.58;;
69951;SDS011;60406;48.408;13.392;2024-02-16T09:54:52;37.60;;;24.00;;
69951;SDS011;60406;48.408;13.392;2024-02-16T09:59:53;41.80;;;25.33;;
69951;SDS011;60406;48.408;13.392;2024-02-16T10:04:54;38.63;;;24.85;;
69951;SDS011;60406;48.408;13.392;2024-02-16T10:09:54;33.88;;;22.80;;
69951;SDS011;60406;48.408;13.392;2024-02-16T10:14:55;34.05;;;22.45;;
69951;SDS011;60406;48.408;13.392;2024-02-16T10:19:56;35.78;;;22.65;;
69951;SDS011;60406;48.408;13.392;2024-02-16T10:25:10;32.28;;;22.50;;
69951;SDS011;60406;48.408;13.392;2024-02-16T10:30:11;36.17;;;23.67;;
69951;SDS011;60406;48.408;13.392;2024-02-16T10:35:12;35.15;;;23.88;;
69951;SDS011;60406;48.408;13.392;2024-02-16T10:40:14;40.08;;;26.00;;
69951;SDS011;60406;48.408;13.392;2024-02-16T10:45:15;38.25;;;24.52;;
69951;SDS011;60406;48.408;13.392;2024-02-16T10:50:16;37.70;;;25.00;;
69951;SDS011;60406;48.408;13.392;2024-02-16T10:55:17;38.60;;;24.95;;
69951;SDS011;60406;48.408;13.392;2024-02-16T11:00:19;35.83;;;24.52;;
69951;SDS011;60406;48.408;13.392;2024-02-16T11:05:20;33.50;;;22.15;;
69951;SDS011;60406;48.408;13.392;2024-02-16T11:10:21;36.42;;;21.65;;
69951;SDS011;60406;48.408;13.392;2024-02-16T11:15:28;35.75;;;24.38;;
69951;SDS011;60406;48.408;13.392;2024-02-16T11:20:37;32.15;;;22.42;;
69951;SDS011;60406;48.408;13.392;2024-02-16T11:25:38;33.60;;;21.60;;
69951;SDS011;60406;48.408;13.392;2024-02-16T11:30:39;33.05;;;22.80;;
69951;SDS011;60406;48.408;13.392;2024-02-16T11:35:40;31.33;;;22.45;;
69951;SDS011;60406;48.408;13.392;2024-02-16T11:40:41;31.00;;;21.52;;
69951;SDS011;60406;48.408;13.392;2024-02-16T11:45:42;27.90;;;18.30;;
69951;SDS011;60406;48.408;13.392;2024-02-16T11:50:43;27.55;;;20.73;;
69951;SDS011;60406;48.408;13.392;2024-02-16T11:55:47;24.67;;;19.75;;
69951;SDS011;60406;48.408;13.392;2024-02-16T12:00:48;19.95;;;17.83;;
69951;SDS011;60406;48.408;13.392;2024-02-16T12:05:53;21.00;;;18.55;;
69951;SDS011;60406;48.408;13.392;2024-02-16T12:10:58;23.75;;;20.73;;
69951;SDS011;60406;48.408;13.392;2024-02-16T12:15:59;23.23;;;20.10;;
69951;SDS011;60406;48.408;13.392;2024-02-16T12:26:03;20.40;;;18.02;;
69951;SDS011;60406;48.408;13.392;2024-02-16T12:31:04;20.95;;;17.98;;
69951;SDS011;60406;48.408;13.392;2024-02-16T12:36:05;21.85;;;19.60;;
69951;SDS011;60406;48.408;13.392;2024-02-16T12:41:06;20.50;;;18.25;;
69951;SDS011;60406;48.408;13.392;2024-02-16T12:46:07;18.92;;;16.95;;
69951;SDS011;60406;48.408;13.392;2024-02-16T12:51:08;18.23;;;16.02;;
69951;SDS011;60406;48.408;13.392;2024-02-16T12:56:09;18.05;;;16.25;;
69951;SDS011;60406;48.408;13.392;2024-02-16T13:01:10;18.00;;;16.20;;
69951;SDS011;60406;48.408;13.392;2024-02-16T13:06:11;18.08;;;16.25;;
69951;SDS011;60406;48.408;13.392;2024-02-16T13:11:12;22.83;;;17.77;;
69951;SDS011;60406;48.408;13.392;2024-02-16T13:16:13;19.52;;;17.48;;
69951;SDS011;60406;48.408;13.392;2024-02-16T13:21:14;19.75;;;17.73;;
69951;SDS011;60406;48.408;13.392;2024-02-16T13:26:14;18.85;;;16.88;;
69951;SDS011;60406;48.408;13.392;2024-02-16T13:31:15;17.70;;;15.88;;
69951;SDS011;60406;48.408;13.392;2024-02-16T13:36:16;17.75;;;15.52;;
69951;SDS011;60406;48.408;13.392;2024-02-16T13:41:17;20.75;;;17.33;;
69951;SDS011;60406;48.408;13.392;2024-02-16T13:46:18;17.55;;;14.65;;
69951;SDS011;60406;48.408;13.392;2024-02-16T13:51:20;14.23;;;12.82;;
69951;SDS011;60406;48.408;13.392;2024-02-16T13:56:20;14.35;;;12.85;;
69951;SDS011;60406;48.408;13.392;2024-02-16T14:01:21;14.05;;;12.63;;
69951;SDS011;60406;48.408;13.392;2024-02-16T14:06:22;16.33;;;14.07;;
69951;SDS011;60406;48.408;13.392;2024-02-16T14:11:23;16.48;;;14.70;;
69951;SDS011;60406;48.408;13.392;2024-02-16T14:16:24;15.18;;;13.68;;
69951;SDS011;60406;48.408;13.392;2024-02-16T14:21:25;15.80;;;14.20;;
69951;SDS011;60406;48.408;13.392;2024-02-16T14:26:26;15.52;;;13.95;;
69951;SDS011;60406;48.408;13.392;2024-02-16T14:31:27;15.05;;;13.45;;
69951;SDS011;60406;48.408;13.392;2024-02-16T14:36:27;15.35;;;13.85;;
69951;SDS011;60406;48.408;13.392;2024-02-16T14:41:28;16.52;;;14.85;;
69951;SDS011;60406;48.408;13.392;2024-02-16T14:46:29;16.83;;;15.13;;
69951;SDS011;60406;48.408;13.392;2024-02-16T14:51:30;17.70;;;15.90;;
69951;SDS011;60406;48.408;13.392;2024-02-16T14:56:31;18.67;;;16.52;;
69951;SDS011;60406;48.408;13.392;2024-02-16T15:01:32;22.85;;;16.42;;
69951;SDS011;60406;48.408;13.392;2024-02-16T15:06:36;18.55;;;16.50;;
69951;SDS011;60406;48.408;13.392;2024-02-16T15:11:37;22.48;;;17.73;;
69951;SDS011;60406;48.408;13.392;2024-02-16T15:16:37;21.00;;;18.65;;
69951;SDS011;60406;48.408;13.392;2024-02-16T15:21:38;25.63;;;19.25;;
69951;SDS011;60406;48.408;13.392;2024-02-16T15:26:39;25.77;;;19.52;;
69951;SDS011;60406;48.408;13.392;2024-02-16T15:31:40;27.65;;;20.63;;
69951;SDS011;60406;48.408;13.392;2024-02-16T15:36:41;25.10;;;20.73;;
69951;SDS011;60406;48.408;13.392;2024-02-16T15:41:42;30.45;;;22.17;;
69951;SDS011;60406;48.408;13.392;2024-02-16T15:46:43;29.58;;;21.65;;
69951;SDS011;60406;48.408;13.392;2024-02-16T15:51:44;34.60;;;22.92;;
69951;SDS011;60406;48.408;13.392;2024-02-16T15:56:44;35.03;;;22.58;;
69951;SDS011;60406;48.408;13.392;2024-02-16T16:01:45;33.92;;;22.75;;
69951;SDS011;60406;48.408;13.392;2024-02-16T16:06:46;35.60;;;24.45;;
69951;SDS011;60406;48.408;13.392;2024-02-16T16:11:47;34.17;;;22.17;;
69951;SDS011;60406;48.408;13.392;2024-02-16T16:16:48;40.60;;;23.27;;
69951;SDS011;60406;48.408;13.392;2024-02-16T16:21:49;34.28;;;22.00;;
69951;SDS011;60406;48.408;13.392;2024-02-16T16:26:50;35.30;;;23.65;;
69951;SDS011;60406;48.408;13.392;2024-02-16T16:31:51;37.10;;;22.90;;
69951;SDS011;60406;48.408;13.392;2024-02-16T16:36:52;37.45;;;23.52;;
69951;SDS011;60406;48.408;13.392;2024-02-16T16:41:53;37.92;;;24.30;;
69951;SDS011;60406;48.408;13.392;2024-02-16T16:46:54;39.65;;;26.20;;
69951;SDS011;60406;48.408;13.392;2024-02-16T16:51:55;41.22;;;26.42;;
69951;SDS011;60406;48.408;13.392;2024-02-16T16:56:56;47.28;;;30.20;;
69951;SDS011;60406;48.408;13.392;2024-02-16T17:01:57;39.85;;;27.08;;
69951;SDS011;60406;48.408;13.392;2024-02-16T17:06:58;39.05;;;26.00;;
69951;SDS011;60406;48.408;13.392;2024-02-16T17:11:59;41.30;;;24.95;;
69951;SDS011;60406;48.408;13.392;2024-02-16T17:17:00;36.45;;;24.77;;
69951;SDS011;60406;48.408;13.392;2024-02-16T17:22:02;40.10;;;25.20;;
69951;SDS011;60406;48.408;13.392;2024-02-16T17:27:04;37.88;;;24.45;;
69951;SDS011;60406;48.408;13.392;2024-02-16T17:32:05;39.20;;;25.38;;
69951;SDS011;60406;48.408;13.392;2024-02-16T17:37:06;47.70;;;29.25;;
69951;SDS011;60406;48.408;13.392;2024-02-16T17:42:07;50.42;;;30.35;;
69951;SDS011;60406;48.408;13.392;2024-02-16T17:47:08;58.00;;;35.03;;
69951;SDS011;60406;48.408;13.392;2024-02-16T17:52:09;61.33;;;35.00;;
69951;SDS011;60406;48.408;13.392;2024-02-16T17:57:10;62.40;;;39.60;;
69951;SDS011;60406;48.408;13.392;2024-02-16T18:02:11;92.78;;;61.00;;
69951;SDS011;60406;48.408;13.392;2024-02-16T18:07:12;66.05;;;41.70;;
69951;SDS011;60406;48.408;13.392;2024-02-16T18:12:13;54.10;;;36.28;;
69951;SDS011;60406;48.408;13.392;2024-02-16T18:17:14;48.00;;;32.63;;
69951;SDS011;60406;48.408;13.392;2024-02-16T18:22:15;55.10;;;33.08;;
69951;SDS011;60406;48.408;13.392;2024-02-16T18:27:16;54.42;;;33.40;;
69951;SDS011;60406;48.408;13.392;2024-02-16T18:32:17;55.25;;;33.17;;
69951;SDS011;60406;48.408;13.392;2024-02-16T18:37:17;48.53;;;31.77;;
69951;SDS011;60406;48.408;13.392;2024-02-16T18:42:18;55.63;;;35.15;;
69951;SDS011;60406;48.408;13.392;2024-02-16T18:47:19;50.13;;;31.58;;
69951;SDS011;60406;48.408;13.392;2024-02-16T18:52:20;49.95;;;29.98;;
69951;SDS011;60406;48.408;13.392;2024-02-16T18:57:21;47.33;;;30.35;;
69951;SDS011;60406;48.408;13.392;2024-02-16T19:02:22;45.47;;;29.42;;
69951;SDS011;60406;48.408;13.392;2024-02-16T19:07:23;50.25;;;30.25;;
69951;SDS011;60406;48.408;13.392;2024-02-16T19:12:24;49.42;;;29.95;;
69951;SDS011;60406;48.408;13.392;2024-02-16T19:17:24;48.33;;;29.85;;
69951;SDS011;60406;48.408;13.392;2024-02-16T19:22:25;68.30;;;36.72;;
69951;SDS011;60406;48.408;13.392;2024-02-16T19:27:26;68.90;;;37.88;;
69951;SDS011;60406;48.408;13.392;2024-02-16T19:32:27;45.20;;;28.20;;
69951;SDS011;60406;48.408;13.392;2024-02-16T19:37:28;61.97;;;34.97;;
69951;SDS011;60406;48.408;13.392;2024-02-16T19:42:29;73.13;;;37.63;;
69951;SDS011;60406;48.408;13.392;2024-02-16T19:47:30;74.40;;;40.40;;
69951;SDS011;60406;48.408;13.392;2024-02-16T19:52:31;74.03;;;40.60;;
69951;SDS011;60406;48.408;13.392;2024-02-16T19:57:32;68.75;;;40.13;;
69951;SDS011;60406;48.408;13.392;2024-02-16T20:02:33;56.17;;;34.20;;
69951;SDS011;60406;48.408;13.392;2024-02-16T20:07:33;53.83;;;30.90;;
69951;SDS011;60406;48.408;13.392;2024-02-16T20:12:34;51.70;;;31.42;;
69951;SDS011;60406;48.408;13.392;2024-02-16T20:17:35;50.00;;;31.20;;
69951;SDS011;60406;48.408;13.392;2024-02-16T20:22:36;54.58;;;31.85;;
69951;SDS011;60406;48.408;13.392;2024-02-16T20:27:37;58.80;;;34.08;;
69951;SDS011;60406;48.408;13.392;2024-02-16T20:32:38;53.15;;;31.52;;
69951;SDS011;60406;48.408;13.392;2024-02-16T20:37:39;49.10;;;31.27;;
69951;SDS011;60406;48.408;13.392;2024-02-16T20:42:40;63.55;;;36.63;;
69951;SDS011;60406;48.408;13.392;2024-02-16T20:47:41;58.83;;;33.65;;
69951;SDS011;60406;48.408;13.392;2024-02-16T20:52:42;52.45;;;30.40;;
69951;SDS011;60406;48.408;13.392;2024-02-16T20:57:43;49.30;;;28.85;;
69951;SDS011;60406;48.408;13.392;2024-02-16T21:02:44;56.50;;;35.38;;
69951;SDS011;60406;48.408;13.392;2024-02-16T21:07:45;65.20;;;37.38;;
69951;SDS011;60406;48.408;13.392;2024-02-16T21:12:46;60.55;;;35.15;;
69951;SDS011;60406;48.408;13.392;2024-02-16T21:17:47;51.28;;;32.40;;
69951;SDS011;60406;48.408;13.392;2024-02-16T21:22:48;44.83;;;28.50;;
69951;SDS011;60406;48.408;13.392;2024-02-16T21:27:48;58.35;;;33.72;;
69951;SDS011;60406;48.408;13.392;2024-02-16T21:32:49;52.92;;;31.27;;
69951;SDS011;60406;48.408;13.392;2024-02-16T21:37:50;55.83;;;31.90;;
69951;SDS011;60406;48.408;13.392;2024-02-16T21:42:51;56.50;;;33.78;;
69951;SDS011;60406;48.408;13.392;2024-02-16T21:47:52;59.88;;;34.17;;
69951;SDS011;60406;48.408;13.392;2024-02-16T21:52:53;59.97;;;34.63;;
69951;SDS011;60406;48.408;13.392;2024-02-16T21:57:54;59.42;;;34.67;;
69951;SDS011;60406;48.408;13.392;2024-02-16T22:02:54;65.40;;;36.45;;
69951;SDS011;60406;48.408;13.392;2024-02-16T22:07:55;61.25;;;34.97;;
69951;SDS011;60406;48.408;13.392;2024-02-16T22:12:56;65.65;;;38.72;;
69951;SDS011;60406;48.408;13.392;2024-02-16T22:17:57;65.57;;;39.88;;
69951;SDS011;60406;48.408;13.392;2024-02-16T22:22:58;63.92;;;37.90;;
69951;SDS011;60406;48.408;13.392;2024-02-16T22:27:59;57.63;;;35.20;;
69951;SDS011;60406;48.408;13.392;2024-02-16T22:33:00;66.60;;;38.83;;
69951;SDS011;60406;48.408;13.392;2024-02-16T22:38:01;69.25;;;38.80;;
69951;SDS011;60406;48.408;13.392;2024-02-16T22:43:02;66.28;;;36.78;;
69951;SDS011;60406;48.408;13.392;2024-02-16T22:48:03;59.38;;;35.95;;
69951;SDS011;60406;48.408;13.392;2024-02-16T22:53:04;63.25;;;35.15;;
69951;SDS011;60406;48.408;13.392;2024-02-16T22:58:05;52.50;;;31.42;;
69951;SDS011;60406;48.408;13.392;2024-02-16T23:03:06;58.58;;;32.58;;
69951;SDS011;60406;48.408;13.392;2024-02-16T23:08:07;55.10;;;32.33;;
69951;SDS011;60406;48.408;13.392;2024-02-16T23:13:08;53.63;;;31.35;;
69951;SDS011;60406;48.408;13.392;2024-02-16T23:18:09;58.60;;;32.22;;
69951;SDS011;60406;48.408;13.392;2024-02-16T23:23:10;56.05;;;32.05;;
69951;SDS011;60406;48.408;13.392;2024-02-16T23:28:11;53.45;;;31.58;;
69951;SDS011;60406;48.408;13.392;2024-02-16T23:33:13;55.83;;;30.90;;
69951;SDS011;60406;48.408;13.392;2024-02-16T23:38:14;55.15;;;29.80;;
69951;SDS011;60406;48.408;13.392;2024-02-16T23:43:14;44.90;;;27.27;;
69951;SDS011;60406;48.408;13.392;2024-02-16T23:48:15;55.13;;;30.45;;
69951;SDS011;60406;48.408;13.392;2024-02-16T23:53:16;56.55;;;32.55;;
69951;SDS011;60406;48.408;13.392;2024-02-16T23:58:17;55.70;;;32.55;;
